createdAt,value
2023-03-25T00:00:17.980Z,92.30
2023-03-25T00:02:50.240Z,92.50
2023-03-25T00:05:20.546Z,92.40
2023-03-25T00:07:51.985Z,92.40
2023-03-25T00:10:19.736Z,92.60
2023-03-25T00:12:46.870Z,92.60
2023-03-25T00:15:16.190Z,92.70
2023-03-25T00:17:44.163Z,92.50
2023-03-25T00:20:12.247Z,92.60
2023-03-25T00:22:44.493Z,92.50
2023-03-25T00:25:19.356Z,92.50
2023-03-25T00:27:48.543Z,92.40
2023-03-25T00:30:16.661Z,92.30
2023-03-25T00:32:50.461Z,92.30
2023-03-25T00:35:21.255Z,92.30
2023-03-25T00:37:52.298Z,92.30
2023-03-25T00:40:19.309Z,92.40
2023-03-25T00:42:50.417Z,92.50
2023-03-25T00:45:17.744Z,92.50
2023-03-25T00:47:44.893Z,92.50
2023-03-25T00:50:12.278Z,92.60
2023-03-25T00:52:39.258Z,92.80
2023-03-25T00:55:07.543Z,92.80
2023-03-25T00:57:34.523Z,92.90
2023-03-25T01:00:01.675Z,92.70
2023-03-25T01:02:28.649Z,92.80
2023-03-25T01:04:57.598Z,92.80
2023-03-25T01:07:24.647Z,92.70
2023-03-25T01:09:51.748Z,93.00
2023-03-25T01:12:20.019Z,92.90
2023-03-25T01:14:47.114Z,92.80
2023-03-25T01:17:15.336Z,92.90
2023-03-25T01:19:42.246Z,92.90
2023-03-25T01:22:09.161Z,92.80
2023-03-25T01:24:36.316Z,92.90
2023-03-25T01:27:03.464Z,92.90
2023-03-25T01:29:31.053Z,93.10
2023-03-25T01:31:58.009Z,93.00
2023-03-25T01:34:25.436Z,93.00
2023-03-25T01:36:55.161Z,93.00
2023-03-25T01:39:22.592Z,93.00
2023-03-25T01:41:51.402Z,93.00
2023-03-25T01:44:22.079Z,93.00
2023-03-25T01:46:54.585Z,93.00
2023-03-25T01:49:39.135Z,93.20
2023-03-25T01:52:17.902Z,93.20
2023-03-25T01:54:46.576Z,93.10
2023-03-25T01:57:19.495Z,93.10
2023-03-25T01:59:47.116Z,93.30
2023-03-25T02:02:15.721Z,93.50
2023-03-25T02:04:59.169Z,93.40
2023-03-25T02:07:33.195Z,93.50
2023-03-25T02:10:04.894Z,93.60
2023-03-25T02:12:31.833Z,93.50
2023-03-25T02:15:02.378Z,93.60
2023-03-25T02:17:56.360Z,93.50
2023-03-25T02:21:13.910Z,93.80
2023-03-25T02:24:16.955Z,94.10
2023-03-25T02:27:13.829Z,94.20
2023-03-25T02:30:28.243Z,94.00
2023-03-25T02:33:42.698Z,94.20
2023-03-25T02:36:45.657Z,94.40
2023-03-25T02:39:40.582Z,94.20
2023-03-25T02:42:40.704Z,94.10
2023-03-25T02:45:34.148Z,94.10
2023-03-25T02:48:08.434Z,94.10
2023-03-25T02:50:44.381Z,94.10
2023-03-25T02:53:18.222Z,94.10
2023-03-25T02:55:48.006Z,94.10
2023-03-25T02:58:19.332Z,94.10
2023-03-25T03:00:46.735Z,94.10
2023-03-25T03:03:13.816Z,94.00
2023-03-25T03:05:46.301Z,94.00
2023-03-25T03:08:49.988Z,94.00
2023-03-25T03:11:30.331Z,94.00
2023-03-25T03:14:11.878Z,93.80
2023-03-25T03:17:20.113Z,93.80
2023-03-25T03:19:58.314Z,93.80
2023-03-25T03:23:12.282Z,93.70
2023-03-25T03:25:54.472Z,93.80
2023-03-25T03:28:32.973Z,93.80
2023-03-25T03:31:52.171Z,93.90
2023-03-25T03:34:34.621Z,94.00
2023-03-25T03:37:04.403Z,94.20
2023-03-25T03:39:36.612Z,94.30
2023-03-25T03:42:23.669Z,94.40
2023-03-25T03:44:57.010Z,94.60
2023-03-25T03:47:32.491Z,94.40
2023-03-25T03:50:09.276Z,94.50
2023-03-25T03:52:46.199Z,94.40
2023-03-25T03:55:19.064Z,94.40
2023-03-25T03:57:53.111Z,94.30
2023-03-25T04:00:29.613Z,94.40
2023-03-25T04:03:06.050Z,94.40
2023-03-25T04:05:36.654Z,94.30
2023-03-25T04:08:26.475Z,94.20
2023-03-25T04:11:01.620Z,94.30
2023-03-25T04:13:35.153Z,94.20
2023-03-25T04:16:02.496Z,94.30
2023-03-25T04:18:29.802Z,94.20
2023-03-25T04:20:56.770Z,94.30
2023-03-25T04:23:23.654Z,94.30
2023-03-25T04:25:53.484Z,94.40
2023-03-25T04:28:20.793Z,94.30
2023-03-25T04:30:55.549Z,94.40
2023-03-25T04:33:23.692Z,94.50
2023-03-25T04:35:51.558Z,94.40
2023-03-25T04:38:19.774Z,94.40
2023-03-25T04:40:47.483Z,94.40
2023-03-25T04:43:17.897Z,94.60
2023-03-25T04:45:49.589Z,94.70
2023-03-25T04:48:30.436Z,94.60
2023-03-25T04:50:59.198Z,94.70
2023-03-25T04:53:27.292Z,94.60
2023-03-25T04:55:55.183Z,94.90
2023-03-25T04:58:22.996Z,94.60
2023-03-25T05:00:52.249Z,94.70
2023-03-25T05:03:24.360Z,94.70
2023-03-25T05:05:52.814Z,94.60
2023-03-25T05:08:21.676Z,94.80
2023-03-25T05:10:49.639Z,94.70
2023-03-25T05:13:17.066Z,94.70
2023-03-25T05:15:44.167Z,94.80
2023-03-25T05:18:16.157Z,94.70
2023-03-25T05:20:46.893Z,94.80
2023-03-25T05:23:17.954Z,94.70
2023-03-25T05:25:51.337Z,94.80
2023-03-25T05:28:19.516Z,94.80
2023-03-25T05:30:47.432Z,94.70
2023-03-25T05:33:17.062Z,94.80
2023-03-25T05:35:45.219Z,94.70
2023-03-25T05:38:13.418Z,94.90
2023-03-25T05:40:40.497Z,94.90
2023-03-25T05:43:07.923Z,95.10
2023-03-25T05:45:38.221Z,95.20
2023-03-25T05:48:05.482Z,95.20
2023-03-25T05:50:32.637Z,95.20
2023-03-25T05:52:59.938Z,95.30
2023-03-25T05:55:28.154Z,95.30
2023-03-25T05:57:56.886Z,95.10
2023-03-25T06:00:24.602Z,95.20
2023-03-25T06:02:52.225Z,95.10
2023-03-25T06:05:23.552Z,95.10
2023-03-25T06:07:51.165Z,95.20
2023-03-25T06:10:18.732Z,95.20
2023-03-25T06:12:47.384Z,95.20
2023-03-25T06:15:18.106Z,95.30
2023-03-25T06:17:47.238Z,95.20
2023-03-25T06:20:16.597Z,95.20
2023-03-25T06:22:45.797Z,95.20
2023-03-25T06:25:20.619Z,95.30
2023-03-25T06:27:50.023Z,95.30
2023-03-25T06:30:21.798Z,95.30
2023-03-25T06:32:50.516Z,95.20
2023-03-25T06:35:20.165Z,95.10
2023-03-25T06:37:48.911Z,95.00
2023-03-25T06:40:24.931Z,95.00
2023-03-25T06:42:51.943Z,94.90
2023-03-25T06:45:44.453Z,95.00
2023-03-25T06:48:18.401Z,95.00
2023-03-25T06:50:45.733Z,94.90
2023-03-25T06:53:12.720Z,95.00
2023-03-25T06:55:39.644Z,94.90
2023-03-25T06:58:06.612Z,94.70
2023-03-25T07:00:33.503Z,94.60
2023-03-25T07:03:01.698Z,94.60
2023-03-25T07:05:28.807Z,94.60
2023-03-25T07:07:55.828Z,94.60
2023-03-25T07:10:22.737Z,94.40
2023-03-25T07:12:49.606Z,94.40
2023-03-25T07:15:16.625Z,94.30
2023-03-25T07:17:49.106Z,94.20
2023-03-25T07:20:17.119Z,94.20
2023-03-25T07:22:44.274Z,94.00
2023-03-25T07:25:11.177Z,94.10
2023-03-25T07:27:38.069Z,94.00
2023-03-25T07:30:09.922Z,93.70
2023-03-25T07:32:36.854Z,93.40
2023-03-25T07:35:04.826Z,93.00
2023-03-25T07:37:31.888Z,93.00
2023-03-25T07:39:58.803Z,92.60
2023-03-25T07:42:25.671Z,92.50
2023-03-25T07:45:02.940Z,92.70
2023-03-25T07:47:31.269Z,92.40
2023-03-25T07:49:58.215Z,92.10
2023-03-25T07:52:25.166Z,92.10
2023-03-25T07:54:52.087Z,92.20
2023-03-25T07:57:18.972Z,92.20
2023-03-25T07:59:45.854Z,92.00
2023-03-25T08:02:14.067Z,91.80
2023-03-25T08:04:41.032Z,91.80
2023-03-25T08:07:08.102Z,91.50
2023-03-25T08:09:35.319Z,91.50
2023-03-25T08:12:02.315Z,91.50
2023-03-25T08:14:29.211Z,91.40
2023-03-25T08:16:56.144Z,91.40
2023-03-25T08:19:23.072Z,91.40
2023-03-25T08:21:49.959Z,92.00
2023-03-25T08:24:17.041Z,91.40
2023-03-25T08:26:44.463Z,91.20
2023-03-25T08:29:11.599Z,91.30
2023-03-25T08:31:39.126Z,91.20
2023-03-25T08:34:06.856Z,91.00
2023-03-25T08:36:33.823Z,90.90
2023-03-25T08:39:01.496Z,90.40
2023-03-25T08:41:28.404Z,90.00
2023-03-25T08:43:55.294Z,89.60
2023-03-25T08:46:23.194Z,89.20
2023-03-25T08:48:50.423Z,88.60
2023-03-25T08:51:18.020Z,89.00
2023-03-25T08:53:45.002Z,88.50
2023-03-25T08:56:11.914Z,88.30
2023-03-25T08:58:38.871Z,88.10
2023-03-25T09:01:06.684Z,88.40
2023-03-25T09:03:33.940Z,88.10
2023-03-25T09:06:05.839Z,88.00
2023-03-25T09:08:33.148Z,87.40
2023-03-25T09:11:00.248Z,87.50
2023-03-25T09:13:27.141Z,87.20
2023-03-25T09:15:54.291Z,87.10
2023-03-25T09:18:21.524Z,87.10
2023-03-25T09:20:48.462Z,87.40
2023-03-25T09:23:16.255Z,86.70
2023-03-25T09:25:43.204Z,86.70
2023-03-25T09:28:10.389Z,86.40
2023-03-25T09:30:37.299Z,85.70
2023-03-25T09:33:04.368Z,85.30
2023-03-25T09:35:31.310Z,85.60
2023-03-25T09:37:58.327Z,85.70
2023-03-25T09:40:25.455Z,85.80
2023-03-25T09:43:29.919Z,85.60
2023-03-25T09:45:57.728Z,85.60
2023-03-25T09:48:38.414Z,85.30
2023-03-25T09:51:25.530Z,84.90
2023-03-25T09:54:00.405Z,84.40
2023-03-25T09:56:31.470Z,84.40
2023-03-25T09:59:11.479Z,84.10
2023-03-25T10:01:39.988Z,83.60
2023-03-25T10:04:33.884Z,83.70
2023-03-25T10:07:32.158Z,83.20
2023-03-25T10:10:19.370Z,83.00
2023-03-25T10:13:22.836Z,82.30
2023-03-25T10:16:29.471Z,82.10
2023-03-25T10:19:27.804Z,82.60
2023-03-25T10:22:04.481Z,82.30
2023-03-25T10:24:51.096Z,81.90
2023-03-25T10:27:38.087Z,82.20
2023-03-25T10:30:23.317Z,81.10
2023-03-25T10:32:57.482Z,81.60
2023-03-25T10:35:31.198Z,81.40
2023-03-25T10:38:13.909Z,81.60
2023-03-25T10:40:53.503Z,82.10
2023-03-25T10:43:34.654Z,81.60
2023-03-25T10:46:34.012Z,81.20
2023-03-25T10:49:01.341Z,81.10
2023-03-25T10:51:32.753Z,81.00
2023-03-25T10:54:00.549Z,79.90
2023-03-25T10:56:36.347Z,80.30
2023-03-25T10:59:27.991Z,80.30
2023-03-25T11:01:56.621Z,79.80
2023-03-25T11:04:46.279Z,80.70
2023-03-25T11:07:24.625Z,84.30
2023-03-25T11:09:51.812Z,85.10
2023-03-25T11:12:33.244Z,85.40
2023-03-25T11:15:19.589Z,85.60
2023-03-25T11:17:48.388Z,87.00
2023-03-25T11:20:22.230Z,88.40
2023-03-25T11:22:53.548Z,88.70
2023-03-25T11:25:29.091Z,89.70
2023-03-25T11:27:59.340Z,90.00
2023-03-25T11:30:26.729Z,89.60
2023-03-25T11:33:05.286Z,89.20
2023-03-25T11:35:38.620Z,89.40
2023-03-25T11:38:23.698Z,88.10
2023-03-25T11:40:56.757Z,86.70
2023-03-25T11:43:33.500Z,86.80
2023-03-25T11:46:10.762Z,85.10
2023-03-25T11:48:41.078Z,85.80
2023-03-25T11:51:24.927Z,86.70
2023-03-25T11:54:01.528Z,86.70
2023-03-25T11:56:41.178Z,85.60
2023-03-25T11:59:18.628Z,85.30
2023-03-25T12:01:49.124Z,85.30
2023-03-25T12:04:24.839Z,84.70
2023-03-25T12:07:04.762Z,84.90
2023-03-25T12:09:32.852Z,85.00
2023-03-25T12:12:21.798Z,85.20
2023-03-25T12:15:26.971Z,84.80
2023-03-25T12:18:29.279Z,85.00
2023-03-25T12:21:29.992Z,84.40
2023-03-25T12:24:28.409Z,82.80
2023-03-25T12:27:29.065Z,81.50
2023-03-25T12:30:13.349Z,81.40
2023-03-25T12:33:24.515Z,79.90
2023-03-25T12:36:24.254Z,79.20
2023-03-25T12:39:43.314Z,78.50
2023-03-25T12:42:59.494Z,78.80
2023-03-25T12:45:38.098Z,78.70
2023-03-25T12:48:45.881Z,78.50
2023-03-25T12:52:06.717Z,78.50
2023-03-25T12:55:01.269Z,78.80
2023-03-25T12:58:02.164Z,79.20
2023-03-25T13:00:55.017Z,81.60
2023-03-25T13:04:08.436Z,82.30
2023-03-25T13:06:41.988Z,82.10
2023-03-25T13:09:30.971Z,83.30
2023-03-25T13:12:37.857Z,84.90
2023-03-25T13:15:26.011Z,86.40
2023-03-25T13:18:02.207Z,87.80
2023-03-25T13:20:34.862Z,88.30
2023-03-25T13:23:06.409Z,89.20
2023-03-25T13:26:08.641Z,90.00
2023-03-25T13:28:47.610Z,91.10
2023-03-25T13:31:19.941Z,91.00
2023-03-25T13:34:41.178Z,91.40
2023-03-25T13:37:33.201Z,91.50
2023-03-25T13:40:47.548Z,91.70
2023-03-25T13:43:43.489Z,91.80
2023-03-25T13:46:19.317Z,91.70
2023-03-25T13:48:55.778Z,91.60
2023-03-25T13:51:23.289Z,91.90
2023-03-25T13:54:16.136Z,91.90
2023-03-25T13:57:24.798Z,92.20
2023-03-25T14:00:14.267Z,92.40
2023-03-25T14:03:31.679Z,92.40
2023-03-25T14:06:13.824Z,93.10
2023-03-25T14:09:16.569Z,92.90
2023-03-25T14:12:08.317Z,92.70
2023-03-25T14:14:49.525Z,93.20
2023-03-25T14:17:17.855Z,92.90
2023-03-25T14:19:55.187Z,92.80
2023-03-25T14:22:36.814Z,92.80
2023-03-25T14:25:03.731Z,92.80
2023-03-25T14:27:34.135Z,92.60
2023-03-25T14:30:08.475Z,92.40
2023-03-25T14:32:38.872Z,92.00
2023-03-25T14:35:33.960Z,91.60
2023-03-25T14:38:07.516Z,91.30
2023-03-25T14:40:59.091Z,91.20
2023-03-25T14:43:46.624Z,91.20
2023-03-25T14:46:14.362Z,91.20
2023-03-25T14:48:52.740Z,91.10
2023-03-25T14:51:41.106Z,91.30
2023-03-25T14:54:41.393Z,91.40
2023-03-25T14:57:16.013Z,91.20
2023-03-25T14:59:48.944Z,91.10
2023-03-25T15:02:21.328Z,91.20
2023-03-25T15:05:11.943Z,91.40
2023-03-25T15:07:45.875Z,91.80
2023-03-25T15:10:25.434Z,92.10
2023-03-25T15:13:01.320Z,92.30
2023-03-25T15:15:45.343Z,92.30
2023-03-25T15:18:37.076Z,92.60
2023-03-25T15:21:12.026Z,92.60
2023-03-25T15:23:41.996Z,92.50
2023-03-25T15:26:48.182Z,92.70
2023-03-25T15:29:42.917Z,92.90
2023-03-25T15:32:49.172Z,93.20
2023-03-25T15:36:12.097Z,93.50
2023-03-25T15:39:15.370Z,93.30
2023-03-25T15:42:22.206Z,93.20
2023-03-25T15:45:14.451Z,93.30
2023-03-25T15:48:14.322Z,93.00
2023-03-25T15:51:07.177Z,92.70
2023-03-25T15:54:00.710Z,92.50
2023-03-25T15:56:42.036Z,92.50
2023-03-25T15:59:51.515Z,92.40
2023-03-25T16:02:46.363Z,92.40
2023-03-25T16:05:16.063Z,92.40
2023-03-25T16:07:43.713Z,92.40
2023-03-25T16:10:19.174Z,92.40
2023-03-25T16:12:48.171Z,92.40
2023-03-25T16:15:26.092Z,92.40
2023-03-25T16:17:53.672Z,92.50
2023-03-25T16:20:26.755Z,92.40
2023-03-25T16:22:57.115Z,92.50
2023-03-25T16:25:35.564Z,92.50
2023-03-25T16:28:05.830Z,92.70
2023-03-25T16:30:43.138Z,92.80
2023-03-25T16:33:10.622Z,93.00
2023-03-25T16:35:59.773Z,92.80
2023-03-25T16:38:27.373Z,93.00
2023-03-25T16:41:18.412Z,92.90
2023-03-25T16:43:45.724Z,93.10
2023-03-25T16:46:23.471Z,92.90
2023-03-25T16:48:54.835Z,93.20
2023-03-25T16:51:36.761Z,93.00
2023-03-25T16:54:09.913Z,93.00
2023-03-25T16:56:39.232Z,93.20
2023-03-25T16:59:11.787Z,93.10
2023-03-25T17:01:43.101Z,93.20
2023-03-25T17:04:39.236Z,93.40
2023-03-25T17:07:12.519Z,93.30
2023-03-25T17:09:44.124Z,93.00
2023-03-25T17:12:18.128Z,93.20
2023-03-25T17:14:48.317Z,93.10
2023-03-25T17:17:41.597Z,93.30
2023-03-25T17:20:20.927Z,93.30
2023-03-25T17:23:09.194Z,93.30
2023-03-25T17:26:08.136Z,93.50
2023-03-25T17:29:01.351Z,93.50
2023-03-25T17:31:33.955Z,93.60
2023-03-25T17:34:05.334Z,93.50
2023-03-25T17:36:36.299Z,93.60
2023-03-25T17:39:16.409Z,93.70
2023-03-25T17:41:43.463Z,93.40
2023-03-25T17:44:18.169Z,93.50
2023-03-25T17:46:45.296Z,93.70
2023-03-25T17:49:16.835Z,93.70
2023-03-25T17:51:44.443Z,93.80
2023-03-25T17:54:11.371Z,93.80
2023-03-25T17:56:39.490Z,93.90
2023-03-25T17:59:14.826Z,94.20
2023-03-25T18:01:41.920Z,94.30
2023-03-25T18:04:12.931Z,94.30
2023-03-25T18:06:42.633Z,94.50
2023-03-25T18:09:19.169Z,94.60
2023-03-25T18:11:49.643Z,94.70
2023-03-25T18:14:16.644Z,94.50
2023-03-25T18:16:43.606Z,94.80
2023-03-25T18:19:28.167Z,94.70
2023-03-25T18:21:55.147Z,94.90
2023-03-25T18:24:22.634Z,94.80
2023-03-25T18:26:50.658Z,94.90
2023-03-25T18:29:24.250Z,95.00
2023-03-25T18:31:51.870Z,95.10
2023-03-25T18:34:20.850Z,95.10
2023-03-25T18:36:49.410Z,95.00
2023-03-25T18:39:19.828Z,95.10
2023-03-25T18:41:46.742Z,95.30
2023-03-25T18:44:14.133Z,95.30
2023-03-25T18:46:41.510Z,95.50
2023-03-25T18:49:18.197Z,95.50
2023-03-25T18:51:47.810Z,95.70
2023-03-25T18:54:16.382Z,95.70
2023-03-25T18:56:43.392Z,95.80
2023-03-25T18:59:11.806Z,95.80
2023-03-25T19:01:39.180Z,95.70
2023-03-25T19:04:06.190Z,95.90
2023-03-25T19:06:33.177Z,95.80
2023-03-25T19:09:00.796Z,95.90
2023-03-25T19:11:28.312Z,95.80
2023-03-25T19:13:55.453Z,95.70
2023-03-25T19:16:22.393Z,95.70
2023-03-25T19:18:49.471Z,95.60
2023-03-25T19:21:19.196Z,95.70
2023-03-25T19:23:46.860Z,95.70
2023-03-25T19:26:14.206Z,95.60
2023-03-25T19:28:41.243Z,95.60
2023-03-25T19:31:08.466Z,95.50
2023-03-25T19:33:35.458Z,95.50
2023-03-25T19:36:04.337Z,95.50
2023-03-25T19:38:32.704Z,95.40
2023-03-25T19:41:09.574Z,95.50
2023-03-25T19:43:37.068Z,95.50
2023-03-25T19:46:05.390Z,95.50
2023-03-25T19:48:33.208Z,95.50
2023-03-25T19:51:00.221Z,95.50
2023-03-25T19:53:28.155Z,95.40
2023-03-25T19:55:55.897Z,95.40
2023-03-25T19:58:24.580Z,95.30
2023-03-25T20:00:52.895Z,95.30
2023-03-25T20:03:22.558Z,95.20
2023-03-25T20:05:56.168Z,95.30
2023-03-25T20:08:23.424Z,95.40
2023-03-25T20:10:50.568Z,95.40
2023-03-25T20:13:17.603Z,95.20
2023-03-25T20:15:44.600Z,95.30
2023-03-25T20:18:11.601Z,95.30
2023-03-25T20:20:40.433Z,95.30
2023-03-25T20:23:07.678Z,95.40
2023-03-25T20:25:34.591Z,95.40
2023-03-25T20:28:01.615Z,95.60
2023-03-25T20:30:28.462Z,95.60
2023-03-25T20:32:55.335Z,95.80
2023-03-25T20:35:22.527Z,95.60
2023-03-25T20:37:49.647Z,95.50
2023-03-25T20:40:18.115Z,95.50
2023-03-25T20:42:46.787Z,95.50
2023-03-25T20:45:16.350Z,95.40
2023-03-25T20:47:43.686Z,95.40
2023-03-25T20:50:14.458Z,95.40
2023-03-25T20:52:41.825Z,95.40
2023-03-25T20:55:09.958Z,95.40
2023-03-25T20:57:38.106Z,95.40
2023-03-25T21:00:07.237Z,95.50
2023-03-25T21:02:34.980Z,95.60
2023-03-25T21:05:03.427Z,95.60
2023-03-25T21:07:32.331Z,95.60
2023-03-25T21:09:59.502Z,95.60
2023-03-25T21:12:36.355Z,95.60
2023-03-25T21:15:10.669Z,95.70
2023-03-25T21:17:37.721Z,95.70
2023-03-25T21:20:08.096Z,95.70
2023-03-25T21:22:35.879Z,95.70
2023-03-25T21:25:02.767Z,95.60
2023-03-25T21:27:39.287Z,95.70
2023-03-25T21:30:09.622Z,95.80
2023-03-25T21:32:37.844Z,95.90
2023-03-25T21:35:05.250Z,96.00
2023-03-25T21:37:37.630Z,96.10
2023-03-25T21:40:08.164Z,96.10
2023-03-25T21:42:38.193Z,96.10
2023-03-25T21:45:07.598Z,96.10
2023-03-25T21:47:36.022Z,96.10
2023-03-25T21:50:09.221Z,96.10
2023-03-25T21:52:36.636Z,96.20
2023-03-25T21:55:03.800Z,96.20
2023-03-25T21:57:31.823Z,96.20
2023-03-25T21:59:58.723Z,96.20
2023-03-25T22:02:25.794Z,96.30
2023-03-25T22:04:52.794Z,96.30
2023-03-25T22:07:19.671Z,96.20
2023-03-25T22:09:48.145Z,96.30
2023-03-25T22:12:15.050Z,96.30
2023-03-25T22:14:41.946Z,96.30
2023-03-25T22:17:08.900Z,96.40
2023-03-25T22:19:35.990Z,96.40
2023-03-25T22:22:03.518Z,96.50
2023-03-25T22:24:31.242Z,96.60
2023-03-25T22:26:58.204Z,96.60
2023-03-25T22:29:25.633Z,96.60
2023-03-25T22:31:55.708Z,96.70
2023-03-25T22:34:22.638Z,96.70
2023-03-25T22:36:50.269Z,96.80
2023-03-25T22:39:20.002Z,96.90
2023-03-25T22:41:46.929Z,96.90
2023-03-25T22:44:16.822Z,97.00
2023-03-25T22:46:45.384Z,97.10
2023-03-25T22:49:12.558Z,97.00
2023-03-25T22:51:39.536Z,97.10
2023-03-25T22:54:07.400Z,97.10
2023-03-25T22:56:34.370Z,97.00
2023-03-25T22:59:06.476Z,96.90
2023-03-25T23:01:34.411Z,97.00
2023-03-25T23:04:02.444Z,96.90
2023-03-25T23:06:29.972Z,96.90
2023-03-25T23:08:58.097Z,96.90
2023-03-25T23:11:28.015Z,96.90
2023-03-25T23:14:02.318Z,96.90
2023-03-25T23:16:31.145Z,96.80
2023-03-25T23:18:58.577Z,96.80
2023-03-25T23:21:29.329Z,96.80
2023-03-25T23:23:59.329Z,96.80
2023-03-25T23:26:34.889Z,96.70
2023-03-25T23:29:04.648Z,96.80
2023-03-25T23:31:34.147Z,96.80
2023-03-25T23:34:06.710Z,96.70
2023-03-25T23:36:38.456Z,96.70
2023-03-25T23:39:08.746Z,96.70
2023-03-25T23:41:36.455Z,96.70
2023-03-25T23:44:04.802Z,96.70
2023-03-25T23:46:32.211Z,96.70
2023-03-25T23:49:02.444Z,96.70
2023-03-25T23:51:36.455Z,96.70
2023-03-25T23:54:06.406Z,96.70
2023-03-25T23:56:33.660Z,96.70
2023-03-25T23:59:01.505Z,96.70
